Time;durP1;ratioP1;P1;durP2;ratioP2;P2;SDS_P1;SDS_P2;PMS_P1;PMS_P2;Temp;Humidity;BMP_temperature;BMP_pressure;BME280_temperature;BME280_humidity;BME280_pressure;Samples;Min_cycle;Max_cycle;Signal;HPM_P1;HPM_P2
2022/10/11 00:01:37;;;;;;;10.70;2.78;;;8.60;99.90;;;;;;5053751;28;20059;-67
2022/10/11 00:04:03;;;;;;;13.90;2.72;;;8.70;99.90;;;;;;5054461;28;20040;-66
2022/10/11 00:06:28;;;;;;;10.32;2.17;;;8.60;99.90;;;;;;5054700;28;20047;-67
2022/10/11 00:08:55;;;;;;;10.15;2.97;;;8.60;99.90;;;;;;5054663;28;20063;-67
2022/10/11 00:11:20;;;;;;;6.90;2.42;;;8.50;99.90;;;;;;5054609;28;20045;-67
2022/10/11 00:13:46;;;;;;;9.07;2.60;;;8.50;99.90;;;;;;5054055;28;20047;-66
2022/10/11 00:16:13;;;;;;;9.60;2.80;;;8.50;99.90;;;;;;5054634;28;20108;-67
2022/10/11 00:18:39;;;;;;;6.38;2.75;;;8.50;99.90;;;;;;5054477;28;20033;-67
2022/10/11 00:21:07;;;;;;;8.45;2.47;;;8.50;99.90;;;;;;5054421;28;20158;-67
2022/10/11 00:23:34;;;;;;;9.70;2.90;;;8.50;99.90;;;;;;5054378;28;20037;-67
2022/10/11 00:26:02;;;;;;;7.25;2.42;;;8.50;99.90;;;;;;5053970;28;20071;-66
2022/10/11 00:28:27;;;;;;;13.82;2.80;;;8.50;99.90;;;;;;5054437;28;20091;-67
2022/10/11 00:30:53;;;;;;;10.88;3.00;;;8.50;99.90;;;;;;5052966;28;20445;-67
2022/10/11 00:33:19;;;;;;;6.82;2.58;;;8.40;99.90;;;;;;5054290;28;20041;-67
2022/10/11 00:35:44;;;;;;;9.52;2.83;;;8.40;99.90;;;;;;5052482;28;20048;-67
2022/10/11 00:38:10;;;;;;;6.55;2.38;;;8.40;99.90;;;;;;5054150;28;20037;-67
2022/10/11 00:40:35;;;;;;;7.00;2.30;;;8.40;99.90;;;;;;5053979;28;20029;-67
2022/10/11 00:43:01;;;;;;;6.00;2.38;;;8.40;99.90;;;;;;5053137;28;20040;-66
2022/10/11 00:45:26;;;;;;;8.40;2.42;;;8.40;99.90;;;;;;5053831;28;20041;-67
2022/10/11 00:47:54;;;;;;;6.35;2.53;;;8.40;99.90;;;;;;5052909;28;20041;-66
2022/10/11 00:50:22;;;;;;;7.57;2.63;;;8.40;99.90;;;;;;5053924;28;20045;-67
2022/10/11 00:52:55;;;;;;;5.38;1.98;;;8.40;99.90;;;;;;5053939;28;20045;-67
2022/10/11 00:55:22;;;;;;;7.85;2.20;;;8.30;99.90;;;;;;5053333;28;20044;-67
2022/10/11 00:57:51;;;;;;;7.75;2.60;;;8.30;99.90;;;;;;5053921;28;20141;-67
2022/10/11 01:00:18;;;;;;;7.80;1.98;;;8.40;99.90;;;;;;5053814;28;20095;-67
2022/10/11 01:02:43;;;;;;;6.32;2.15;;;8.30;99.90;;;;;;5053816;28;20033;-67
2022/10/11 01:05:14;;;;;;;8.38;2.28;;;8.30;99.90;;;;;;5051947;28;20106;-67
2022/10/11 01:07:41;;;;;;;5.55;2.40;;;8.30;99.90;;;;;;5053550;28;20045;-66
2022/10/11 01:10:06;;;;;;;5.18;2.00;;;8.40;99.90;;;;;;5053654;28;20052;-66
2022/10/11 01:12:32;;;;;;;4.03;2.03;;;8.40;99.90;;;;;;5053566;28;20087;-67
2022/10/11 01:15:24;;;;;;;5.13;2.00;;;8.40;99.90;;;;;;5052998;28;20041;-67
2022/10/11 01:18:08;;;;;;;6.15;1.90;;;8.40;99.90;;;;;;5052370;28;20041;-67
2022/10/11 01:20:48;;;;;;;9.68;1.80;;;8.40;99.90;;;;;;5053618;28;20404;-67
2022/10/11 01:23:32;;;;;;;7.72;2.08;;;8.40;99.90;;;;;;5052194;28;20532;-67
2022/10/11 01:26:14;;;;;;;6.78;1.77;;;8.40;99.90;;;;;;5052919;28;20044;-67
2022/10/11 01:29:08;;;;;;;6.55;2.30;;;8.40;99.90;;;;;;5051916;28;20049;-67
2022/10/11 01:31:37;;;;;;;8.07;1.65;;;8.30;99.90;;;;;;5053204;28;20397;-67
2022/10/11 01:34:26;;;;;;;5.68;1.65;;;8.30;99.90;;;;;;5052826;28;20413;-67
2022/10/11 01:37:16;;;;;;;6.53;1.60;;;8.30;99.90;;;;;;5068021;28;20061;-66
2022/10/11 01:39:50;;;;;;;10.48;2.35;;;8.30;99.90;;;;;;5051874;28;20045;-67
2022/10/11 01:42:17;;;;;;;6.03;1.83;;;8.20;99.90;;;;;;5052862;28;20045;-67
2022/10/11 01:44:47;;;;;;;5.20;2.40;;;8.20;99.90;;;;;;5052558;28;20045;-67
2022/10/11 01:47:18;;;;;;;8.25;2.08;;;8.20;99.90;;;;;;5052710;28;20545;-67
2022/10/11 01:49:44;;;;;;;6.38;1.90;;;8.20;99.90;;;;;;5052803;28;20072;-67
2022/10/11 01:52:11;;;;;;;7.75;1.90;;;8.10;99.90;;;;;;5051682;28;20413;-67
2022/10/11 01:55:14;;;;;;;4.03;1.75;;;8.10;99.90;;;;;;5051305;28;20047;-66
2022/10/11 01:57:44;;;;;;;8.45;2.00;;;8.00;99.90;;;;;;5051252;28;20043;-67
2022/10/11 02:00:14;;;;;;;5.35;1.77;;;8.00;99.90;;;;;;5052636;28;20098;-66
2022/10/11 02:03:03;;;;;;;7.93;2.47;;;8.00;99.90;;;;;;5052675;28;20067;-67
2022/10/11 02:05:56;;;;;;;8.85;2.40;;;7.90;99.90;;;;;;5050983;28;20052;-67
2022/10/11 02:08:39;;;;;;;8.27;1.88;;;7.90;99.90;;;;;;5051430;28;20053;-67
2022/10/11 02:11:14;;;;;;;4.18;1.80;;;7.90;99.90;;;;;;5052473;28;20053;-67
2022/10/11 02:13:49;;;;;;;6.10;1.90;;;7.90;99.90;;;;;;5052167;28;20425;-67
2022/10/11 02:16:18;;;;;;;5.90;1.83;;;7.90;99.90;;;;;;5052328;28;20041;-67
2022/10/11 02:18:48;;;;;;;6.30;2.03;;;7.90;99.90;;;;;;5052425;28;20401;-67
2022/10/11 02:21:18;;;;;;;5.70;1.67;;;7.80;99.90;;;;;;5052399;28;20052;-67
2022/10/11 02:24:08;;;;;;;12.02;2.47;;;7.80;99.90;;;;;;5052032;28;20036;-67
2022/10/11 02:26:35;;;;;;;3.88;1.90;;;7.80;99.90;;;;;;5050867;28;20555;-67
2022/10/11 02:29:03;;;;;;;5.15;1.92;;;7.80;99.90;;;;;;5051885;28;20041;-67
2022/10/11 02:31:32;;;;;;;2.85;1.40;;;7.90;99.90;;;;;;5051993;28;20513;-67
2022/10/11 02:34:23;;;;;;;10.90;1.90;;;7.80;99.90;;;;;;5051765;28;20154;-67
2022/10/11 02:37:16;;;;;;;6.90;1.75;;;7.80;99.90;;;;;;5070960;28;20400;-67
2022/10/11 02:40:02;;;;;;;3.58;1.65;;;7.70;99.90;;;;;;5068649;28;20044;-67
2022/10/11 02:42:47;;;;;;;10.13;2.33;;;7.70;99.90;;;;;;5070630;28;20047;-67
2022/10/11 02:45:19;;;;;;;4.80;1.88;;;7.70;99.90;;;;;;5071625;28;20044;-67
2022/10/11 02:47:46;;;;;;;6.47;2.25;;;7.70;99.90;;;;;;5070509;28;20052;-67
2022/10/11 02:50:13;;;;;;;3.55;1.77;;;7.60;99.90;;;;;;5070487;28;20056;-67
2022/10/11 02:52:39;;;;;;;4.43;1.65;;;7.70;99.90;;;;;;5071685;28;20033;-66
2022/10/11 02:55:05;;;;;;;4.32;2.22;;;7.60;99.90;;;;;;5069984;28;20048;-67
2022/10/11 02:57:30;;;;;;;2.13;1.88;;;7.50;99.90;;;;;;5070371;28;20043;-67
2022/10/11 02:59:56;;;;;;;7.55;1.80;;;7.50;99.90;;;;;;5071733;28;20115;-66
2022/10/11 03:02:21;;;;;;;9.13;1.98;;;7.60;99.90;;;;;;5071560;28;20040;-67
2022/10/11 03:04:47;;;;;;;5.35;1.63;;;7.50;99.90;;;;;;5071079;28;20048;-67
2022/10/11 03:07:13;;;;;;;6.22;2.28;;;7.50;99.90;;;;;;5071781;28;20047;-66
2022/10/11 03:09:39;;;;;;;4.45;1.85;;;7.50;99.90;;;;;;5071545;28;20045;-67
2022/10/11 03:12:05;;;;;;;5.18;1.70;;;7.50;99.90;;;;;;5053703;28;20131;-67
2022/10/11 03:14:31;;;;;;;7.75;1.88;;;7.40;99.90;;;;;;5069651;28;20055;-67
2022/10/11 03:16:56;;;;;;;6.57;1.80;;;7.40;99.90;;;;;;5071490;28;20446;-67
2022/10/11 03:19:22;;;;;;;5.20;2.25;;;7.40;99.90;;;;;;5071433;28;20142;-67
2022/10/11 03:21:47;;;;;;;3.58;1.70;;;7.40;99.90;;;;;;5071510;28;20082;-67
2022/10/11 03:24:13;;;;;;;2.70;1.63;;;7.40;99.90;;;;;;5071072;28;20089;-67
2022/10/11 03:26:38;;;;;;;5.13;1.95;;;7.40;99.90;;;;;;5071444;28;20037;-67
2022/10/11 03:29:04;;;;;;;6.18;1.75;;;7.40;99.90;;;;;;5070093;28;20052;-67
2022/10/11 03:31:29;;;;;;;9.48;2.45;;;7.30;99.90;;;;;;5071325;28;20123;-67
2022/10/11 03:33:55;;;;;;;6.60;1.88;;;7.30;99.90;;;;;;5071137;28;20119;-66
2022/10/11 03:36:20;;;;;;;11.00;2.67;;;7.30;99.90;;;;;;5071245;28;20533;-66
2022/10/11 03:38:46;;;;;;;8.07;2.45;;;7.30;99.90;;;;;;5071305;28;20116;-66
2022/10/11 03:41:11;;;;;;;3.97;1.80;;;7.30;99.90;;;;;;5071361;28;20504;-67
2022/10/11 03:43:37;;;;;;;2.92;1.83;;;7.30;99.90;;;;;;5071136;28;20086;-67
2022/10/11 03:46:03;;;;;;;5.70;1.85;;;7.20;99.90;;;;;;5070920;28;20561;-67
2022/10/11 03:48:28;;;;;;;4.28;1.92;;;7.10;99.90;;;;;;5071092;28;20037;-67
2022/10/11 03:50:54;;;;;;;3.53;1.90;;;7.20;99.90;;;;;;5071146;28;20036;-67
2022/10/11 03:53:19;;;;;;;7.40;1.73;;;7.20;99.90;;;;;;5071189;28;20071;-67
2022/10/11 03:55:45;;;;;;;6.55;2.10;;;7.30;99.90;;;;;;5070848;28;20043;-67
2022/10/11 03:58:10;;;;;;;6.10;1.98;;;7.30;99.90;;;;;;5071025;28;20047;-66
2022/10/11 04:00:36;;;;;;;6.00;1.80;;;7.30;99.90;;;;;;5070930;28;20072;-67
2022/10/11 04:03:02;;;;;;;4.80;1.55;;;7.30;99.90;;;;;;5069641;28;20045;-67
2022/10/11 04:05:29;;;;;;;4.45;2.03;;;7.20;99.90;;;;;;5070619;28;20086;-67
2022/10/11 04:07:54;;;;;;;4.22;1.63;;;7.20;99.90;;;;;;5071090;28;20075;-67
2022/10/11 04:10:20;;;;;;;6.82;1.90;;;7.20;99.90;;;;;;5071042;28;20075;-67
2022/10/11 04:12:45;;;;;;;8.18;2.00;;;7.20;99.90;;;;;;5071030;28;20036;-67
2022/10/11 04:15:14;;;;;;;6.63;1.77;;;7.20;99.90;;;;;;5070327;28;20045;-66
2022/10/11 04:17:40;;;;;;;4.30;1.70;;;7.10;99.90;;;;;;5071548;28;20036;-66
2022/10/11 04:20:06;;;;;;;3.75;1.50;;;7.10;99.90;;;;;;5074492;28;20504;-67
2022/10/11 04:22:32;;;;;;;5.38;1.80;;;7.00;99.90;;;;;;5074381;28;20115;-67
2022/10/11 04:24:58;;;;;;;5.40;2.15;;;7.00;99.90;;;;;;5074193;28;20461;-66
2022/10/11 04:27:27;;;;;;;2.85;1.90;;;7.00;99.90;;;;;;5073274;28;20128;-66
2022/10/11 04:29:52;;;;;;;5.70;1.80;;;7.00;99.90;;;;;;5074294;28;20093;-66
2022/10/11 04:32:18;;;;;;;6.63;2.30;;;7.10;99.90;;;;;;5074496;28;20052;-66
2022/10/11 04:34:44;;;;;;;5.93;2.20;;;7.20;99.90;;;;;;5073991;28;20400;-66
2022/10/11 04:37:09;;;;;;;5.60;1.95;;;7.00;99.90;;;;;;5074358;28;20503;-66
2022/10/11 04:39:35;;;;;;;2.97;1.90;;;7.00;99.90;;;;;;5072796;28;20067;-66
2022/10/11 04:42:01;;;;;;;5.65;2.05;;;7.00;99.90;;;;;;5072814;28;20488;-66
2022/10/11 04:44:27;;;;;;;5.18;1.52;;;7.10;99.90;;;;;;5072361;28;20047;-66
2022/10/11 04:46:52;;;;;;;2.83;1.80;;;7.20;99.90;;;;;;5072807;28;20036;-66
2022/10/11 04:49:18;;;;;;;4.30;1.60;;;7.10;99.90;;;;;;5073935;28;20378;-66
2022/10/11 04:51:43;;;;;;;2.15;1.48;;;7.10;99.90;;;;;;5074059;28;20041;-67
2022/10/11 04:54:09;;;;;;;8.68;2.13;;;7.10;99.90;;;;;;5071895;28;20041;-66
2022/10/11 04:56:34;;;;;;;5.80;1.70;;;7.10;99.90;;;;;;5073876;28;20048;-66
2022/10/11 04:59:00;;;;;;;3.25;1.70;;;7.10;99.90;;;;;;5073933;28;20036;-66
2022/10/11 05:01:26;;;;;;;5.32;1.58;;;7.10;99.90;;;;;;5073821;28;20047;-66
2022/10/11 05:03:51;;;;;;;7.05;2.05;;;7.10;99.90;;;;;;5072046;28;20047;-66
2022/10/11 05:06:17;;;;;;;4.63;1.98;;;7.10;99.90;;;;;;5073551;28;20045;-67
2022/10/11 05:08:42;;;;;;;4.20;1.90;;;7.10;99.90;;;;;;5073523;28;20409;-66
2022/10/11 05:11:11;;;;;;;6.18;2.30;;;7.10;99.90;;;;;;5073541;28;20113;-66
2022/10/11 05:13:37;;;;;;;2.50;1.70;;;7.10;99.90;;;;;;5073560;28;20421;-66
2022/10/11 05:16:04;;;;;;;2.20;1.88;;;7.10;99.90;;;;;;5073324;28;20036;-67
2022/10/11 05:18:29;;;;;;;4.85;2.20;;;7.10;99.90;;;;;;5073601;28;20032;-66
2022/10/11 05:21:16;;;;;;;4.43;1.75;;;7.10;99.90;;;;;;5073377;28;20079;-66
2022/10/11 05:23:42;;;;;;;2.78;1.90;;;7.10;99.90;;;;;;5073040;28;20048;-66
2022/10/11 05:26:08;;;;;;;7.25;2.03;;;7.10;99.90;;;;;;5073343;28;20033;-66
2022/10/11 05:28:34;;;;;;;3.65;1.70;;;7.10;99.90;;;;;;5071954;28;20497;-66
2022/10/11 05:30:59;;;;;;;5.00;1.92;;;7.10;99.90;;;;;;5073216;28;20036;-66
2022/10/11 05:33:25;;;;;;;6.85;2.20;;;7.10;99.90;;;;;;5073101;28;20037;-66
2022/10/11 05:35:51;;;;;;;5.93;2.15;;;7.00;99.90;;;;;;5072635;28;20575;-66
2022/10/11 05:38:16;;;;;;;4.95;1.88;;;7.00;99.90;;;;;;5070230;28;20481;-66
2022/10/11 05:40:42;;;;;;;6.30;2.13;;;6.90;99.90;;;;;;5070646;28;20119;-66
2022/10/11 05:43:08;;;;;;;4.43;1.75;;;6.90;99.90;;;;;;5072934;28;20052;-66
2022/10/11 05:45:41;;;;;;;3.53;2.10;;;6.90;99.90;;;;;;5071379;28;20640;-66
2022/10/11 05:48:08;;;;;;;3.60;1.95;;;6.80;99.90;;;;;;5071923;28;20036;-66
2022/10/11 05:50:34;;;;;;;2.47;1.95;;;6.90;99.90;;;;;;5070511;28;20044;-66
2022/10/11 05:53:00;;;;;;;2.72;1.80;;;7.00;99.90;;;;;;5071519;28;20044;-66
2022/10/11 05:55:25;;;;;;;4.63;2.42;;;6.90;99.90;;;;;;5071828;28;20051;-66
2022/10/11 05:57:53;;;;;;;4.63;2.25;;;7.00;99.90;;;;;;5072736;28;20180;-66
2022/10/11 06:00:19;;;;;;;4.82;2.13;;;7.00;99.90;;;;;;5072692;28;20043;-66
2022/10/11 06:02:44;;;;;;;4.07;2.20;;;7.00;99.90;;;;;;5072521;28;20124;-66
2022/10/11 06:05:10;;;;;;;4.75;2.53;;;7.00;99.90;;;;;;5071990;28;20055;-66
2022/10/11 06:07:36;;;;;;;4.32;3.25;;;7.00;99.90;;;;;;5072635;28;20043;-66
2022/10/11 06:10:03;;;;;;;8.38;3.08;;;7.10;99.90;;;;;;5072495;28;20040;-66
2022/10/11 06:12:29;;;;;;;6.28;2.10;;;7.10;99.90;;;;;;5072398;28;20041;-66
2022/10/11 06:14:56;;;;;;;5.00;2.67;;;7.10;99.90;;;;;;5071837;28;20048;-66
2022/10/11 06:17:22;;;;;;;4.95;2.15;;;7.10;99.90;;;;;;5072347;28;20033;-66
2022/10/11 06:19:48;;;;;;;5.38;2.30;;;7.10;99.90;;;;;;5072158;28;20043;-66
2022/10/11 06:22:14;;;;;;;7.15;2.58;;;7.10;99.90;;;;;;5072392;28;20029;-66
2022/10/11 06:24:40;;;;;;;5.40;2.33;;;7.10;99.90;;;;;;5071983;28;20040;-66
2022/10/11 06:27:06;;;;;;;3.67;2.42;;;7.20;99.90;;;;;;5072109;28;20039;-66
2022/10/11 06:29:33;;;;;;;5.82;2.50;;;7.10;99.90;;;;;;5072172;28;20032;-66
2022/10/11 06:31:58;;;;;;;4.97;2.47;;;7.20;99.90;;;;;;5072042;28;20386;-69
2022/10/11 06:34:24;;;;;;;3.75;2.40;;;7.10;99.90;;;;;;5070665;28;20028;-66
2022/10/11 06:36:50;;;;;;;6.90;2.55;;;7.10;99.90;;;;;;5071999;28;20040;-66
2022/10/11 06:39:15;;;;;;;4.72;2.17;;;7.00;99.90;;;;;;5071678;28;20170;-66
2022/10/11 06:41:41;;;;;;;3.35;2.10;;;6.90;99.90;;;;;;5071774;28;20473;-66
2022/10/11 06:44:12;;;;;;;2.50;1.67;;;6.90;99.90;;;;;;5069919;28;20082;-66
2022/10/11 06:46:38;;;;;;;3.97;2.10;;;6.90;99.90;;;;;;5071934;28;20115;-66
2022/10/11 06:49:04;;;;;;;2.88;1.70;;;6.90;99.90;;;;;;5070497;28;20465;-66
2022/10/11 06:51:30;;;;;;;4.55;1.85;;;7.00;99.90;;;;;;5071746;28;20046;-66
2022/10/11 06:53:58;;;;;;;5.13;2.20;;;6.90;99.90;;;;;;5071303;28;20059;-66
2022/10/11 06:56:25;;;;;;;4.45;2.10;;;7.00;99.90;;;;;;5070458;28;20044;-67
2022/10/11 06:58:52;;;;;;;3.55;2.55;;;7.00;99.90;;;;;;5071614;28;20493;-67
2022/10/11 07:01:20;;;;;;;4.40;2.53;;;7.10;99.90;;;;;;5071793;28;20415;-67
2022/10/11 07:03:47;;;;;;;3.70;2.55;;;7.20;99.90;;;;;;5071182;28;20107;-66
2022/10/11 07:06:19;;;;;;;6.15;2.80;;;7.30;99.90;;;;;;5087118;28;20116;-66
2022/10/11 07:08:45;;;;;;;5.07;2.85;;;7.30;99.90;;;;;;5071771;28;20464;-66
2022/10/11 07:11:13;;;;;;;3.65;2.38;;;7.30;99.90;;;;;;5071750;28;20097;-66
2022/10/11 07:13:40;;;;;;;6.80;2.53;;;7.40;99.90;;;;;;5071469;28;20036;-66
2022/10/11 07:16:08;;;;;;;5.57;2.97;;;7.40;99.90;;;;;;5071363;28;20056;-67
2022/10/11 07:18:34;;;;;;;5.28;2.50;;;7.40;99.90;;;;;;5071474;28;20374;-67
2022/10/11 07:21:08;;;;;;;3.28;2.47;;;7.50;99.90;;;;;;5071427;28;20170;-67
2022/10/11 07:23:33;;;;;;;5.97;2.65;;;7.50;99.90;;;;;;5071451;28;20041;-67
2022/10/11 07:25:59;;;;;;;4.43;1.95;;;7.60;99.90;;;;;;5071313;28;20041;-67
2022/10/11 07:28:25;;;;;;;5.47;2.05;;;7.60;99.90;;;;;;5071371;28;20040;-67
2022/10/11 07:30:51;;;;;;;8.52;2.42;;;7.70;99.90;;;;;;5071319;28;20505;-67
2022/10/11 07:33:17;;;;;;;5.28;2.60;;;7.70;99.90;;;;;;5071185;28;20090;-67
2022/10/11 07:35:42;;;;;;;3.95;2.58;;;7.70;99.90;;;;;;5071134;28;20488;-66
2022/10/11 07:38:08;;;;;;;9.20;2.10;;;7.70;99.90;;;;;;5071491;28;20513;-67
2022/10/11 07:40:41;;;;;;;6.28;2.90;;;7.80;99.90;;;;;;5071223;28;20074;-67
2022/10/11 07:43:07;;;;;;;;;;;7.80;99.90;;;;;;5070348;28;20044;-67
2022/10/11 07:45:32;;;;;;;5.22;2.20;;;7.80;99.90;;;;;;5070971;28;19916;-67
2022/10/11 07:47:58;;;;;;;6.45;2.53;;;7.80;99.90;;;;;;5071082;28;20036;-67
2022/10/11 07:50:24;;;;;;;5.10;2.42;;;7.80;99.90;;;;;;5071400;28;20044;-68
2022/10/11 07:52:49;;;;;;;7.07;2.42;;;7.80;99.90;;;;;;5073847;28;20425;-67
2022/10/11 07:55:15;;;;;;;4.97;2.70;;;7.90;99.90;;;;;;5073785;28;20048;-67
2022/10/11 07:57:41;;;;;;;5.15;2.55;;;7.90;99.90;;;;;;5074185;28;20043;-67
2022/10/11 08:00:07;;;;;;;6.50;2.35;;;7.90;99.90;;;;;;5074112;28;20041;-67
2022/10/11 08:02:32;;;;;;;5.32;2.10;;;7.90;99.90;;;;;;5073998;28;20040;-67
2022/10/11 08:04:58;;;;;;;4.60;2.10;;;8.00;99.90;;;;;;5073506;28;20432;-67
2022/10/11 08:07:24;;;;;;;6.00;2.38;;;8.00;99.90;;;;;;5072270;28;20041;-67
2022/10/11 08:09:49;;;;;;;4.03;2.60;;;8.10;99.90;;;;;;5073972;28;20558;-68
2022/10/11 08:12:15;;;;;;;7.43;2.95;;;8.10;99.90;;;;;;5066829;28;20151;-68
2022/10/11 08:14:40;;;;;;;4.95;2.40;;;8.10;99.90;;;;;;5071584;28;20381;-69
2022/10/11 08:17:07;;;;;;;9.63;2.58;;;8.20;99.90;;;;;;5073432;28;20039;-67
2022/10/11 08:19:32;;;;;;;10.15;2.75;;;8.20;99.90;;;;;;5072390;28;20041;-68
2022/10/11 08:21:58;;;;;;;5.50;2.40;;;8.30;99.90;;;;;;5073733;28;20546;-68
2022/10/11 08:24:24;;;;;;;5.93;2.10;;;8.30;99.90;;;;;;5071842;28;20041;-68
2022/10/11 08:26:50;;;;;;;5.75;2.30;;;8.40;99.90;;;;;;5073566;28;20036;-66
2022/10/11 08:29:16;;;;;;;9.27;2.55;;;8.40;99.90;;;;;;5073386;28;20036;-67
2022/10/11 08:31:43;;;;;;;6.47;3.00;;;8.40;99.90;;;;;;5073298;28;20408;-68
2022/10/11 08:34:09;;;;;;;6.78;2.75;;;8.50;99.90;;;;;;5071642;28;20097;-67
2022/10/11 08:36:36;;;;;;;9.60;2.60;;;8.50;99.90;;;;;;5073480;28;20048;-67
2022/10/11 08:39:03;;;;;;;7.00;2.58;;;8.60;99.90;;;;;;5072003;28;20083;-68
2022/10/11 08:41:42;;;;;;;8.07;2.60;;;8.70;99.90;;;;;;5072851;28;20523;-67
2022/10/11 08:44:34;;;;;;;6.63;2.40;;;8.70;99.90;;;;;;5072753;28;20040;-67
2022/10/11 08:47:26;;;;;;;6.53;2.47;;;8.70;99.90;;;;;;5073202;28;20492;-67
2022/10/11 08:49:52;;;;;;;9.45;2.90;;;8.80;99.90;;;;;;5073166;28;20040;-68
2022/10/11 08:52:41;;;;;;;6.15;2.38;;;8.90;99.90;;;;;;5073076;28;20519;-67
2022/10/11 08:55:39;;;;;;;7.22;2.72;;;8.90;99.90;;;;;;5072036;28;20044;-67
2022/10/11 08:58:04;;;;;;;7.28;2.40;;;8.90;99.90;;;;;;5072589;28;20456;-67
2022/10/11 09:00:32;;;;;;;7.68;2.55;;;9.00;99.90;;;;;;5072854;28;20037;-67
2022/10/11 09:03:11;;;;;;;11.23;2.55;;;9.10;99.90;;;;;;5072133;28;20076;-67
2022/10/11 09:06:18;;;;;;;9.18;2.78;;;9.10;99.90;;;;;;5072616;28;20435;-68
2022/10/11 09:09:09;;;;;;;8.30;2.90;;;9.30;99.90;;;;;;5072544;28;20497;-67
2022/10/11 09:12:09;;;;;;;9.43;2.65;;;9.40;99.90;;;;;;5072499;28;20033;-67
2022/10/11 09:15:03;;;;;;;8.23;2.50;;;9.50;99.90;;;;;;5012773;28;20045;-67
2022/10/11 09:18:08;;;;;;;9.65;2.58;;;9.60;99.90;;;;;;5052062;28;20068;-67
2022/10/11 09:20:58;;;;;;;10.50;2.35;;;9.70;99.90;;;;;;5052623;28;20094;-67
2022/10/11 09:23:36;;;;;;;12.63;3.55;;;9.80;99.90;;;;;;5066370;28;20065;-66
2022/10/11 09:26:13;;;;;;;10.75;3.47;;;9.90;99.90;;;;;;5071644;28;20119;-67
2022/10/11 09:28:56;;;;;;;3.25;2.25;;;10.00;99.90;;;;;;5072003;28;20044;-67
2022/10/11 09:31:23;;;;;;;5.90;2.83;;;10.10;99.90;;;;;;5071776;28;20055;-68
2022/10/11 09:33:50;;;;;;;5.63;2.47;;;10.10;99.90;;;;;;5071688;28;20062;-67
2022/10/11 09:36:30;;;;;;;7.32;2.10;;;10.20;99.90;;;;;;5071954;28;20040;-67
2022/10/11 09:39:06;;;;;;;8.75;2.58;;;10.20;99.90;;;;;;5072114;28;20094;-67
2022/10/11 09:41:52;;;;;;;7.80;1.80;;;10.40;99.90;;;;;;5072198;28;20045;-66
2022/10/11 09:44:24;;;;;;;8.27;2.00;;;10.40;99.90;;;;;;5066453;28;20097;-67
2022/10/11 09:46:53;;;;;;;11.00;2.72;;;10.40;99.90;;;;;;5072043;28;20076;-67
2022/10/11 09:49:21;;;;;;;6.00;2.10;;;10.50;99.90;;;;;;5071831;28;20040;-67
2022/10/11 09:51:52;;;;;;;7.05;1.85;;;10.50;99.90;;;;;;5069976;28;20028;-67
2022/10/11 09:54:26;;;;;;;6.78;1.63;;;10.70;99.90;;;;;;5070125;28;20033;-66
2022/10/11 09:56:56;;;;;;;6.53;1.73;;;10.80;99.90;;;;;;5069321;28;20055;-67
2022/10/11 09:59:33;;;;;;;12.38;2.10;;;10.80;99.90;;;;;;5067442;28;20484;-66
2022/10/11 10:02:19;;;;;;;5.50;1.60;;;10.90;99.90;;;;;;5057412;28;20115;-67
2022/10/11 10:05:23;;;;;;;6.35;1.70;;;11.00;99.90;;;;;;5051363;28;20037;-67
2022/10/11 10:08:00;;;;;;;5.40;1.73;;;11.10;99.90;;;;;;5050613;28;20439;-67
2022/10/11 10:10:25;;;;;;;8.95;1.67;;;11.10;99.90;;;;;;5069840;28;20043;-67
2022/10/11 10:13:00;;;;;;;5.07;1.85;;;11.10;99.90;;;;;;5066851;28;20033;-67
2022/10/11 10:15:35;;;;;;;10.45;2.00;;;11.20;99.90;;;;;;5048641;28;20122;-67
2022/10/11 10:18:02;;;;;;;7.18;1.70;;;11.20;99.90;;;;;;5060338;28;20047;-67
2022/10/11 10:20:31;;;;;;;7.22;1.85;;;11.20;99.90;;;;;;5071082;28;20481;-67
2022/10/11 10:23:00;;;;;;;11.40;1.85;;;11.30;99.90;;;;;;5069860;28;20036;-67
2022/10/11 10:25:34;;;;;;;5.55;1.75;;;11.40;99.90;;;;;;5070726;28;20052;-67
2022/10/11 10:28:15;;;;;;;9.45;1.58;;;11.30;99.90;;;;;;5070915;28;20058;-67
2022/10/11 10:30:59;;;;;;;6.33;1.60;;;11.40;99.90;;;;;;5062605;28;20053;-67
2022/10/11 10:33:31;;;;;;;5.78;1.50;;;11.50;99.90;;;;;;5070275;28;20045;-68
2022/10/11 10:36:00;;;;;;;6.18;1.77;;;11.50;99.90;;;;;;5070671;28;20041;-67
2022/10/11 10:38:39;;;;;;;6.25;1.90;;;11.60;99.90;;;;;;5071128;28;20086;-66
2022/10/11 10:41:08;;;;;;;5.18;1.38;;;11.60;99.90;;;;;;5071185;28;20638;-66
2022/10/11 10:43:39;;;;;;;3.35;1.58;;;11.70;99.90;;;;;;5071025;28;20051;-66
2022/10/11 10:46:43;;;;;;;8.75;2.13;;;11.80;99.90;;;;;;5070759;28;20440;-66
2022/10/11 10:49:24;;;;;;;3.95;1.30;;;11.80;99.90;;;;;;5021793;28;20041;-66
2022/10/11 10:52:04;;;;;;;6.80;1.77;;;11.80;99.90;;;;;;5017446;28;20034;-66
2022/10/11 10:54:48;;;;;;;5.22;1.77;;;11.90;99.90;;;;;;5035906;28;20114;-66
2022/10/11 10:57:23;;;;;;;3.75;1.70;;;11.90;99.90;;;;;;5053653;28;20073;-66
2022/10/11 10:59:58;;;;;;;8.75;2.10;;;12.10;99.90;;;;;;5050888;28;20107;-66
2022/10/11 11:02:29;;;;;;;6.90;1.60;;;12.00;99.90;;;;;;5051005;28;20041;-66
2022/10/11 11:05:16;;;;;;;7.35;2.15;;;12.00;99.90;;;;;;5050460;28;20098;-66
2022/10/11 11:07:48;;;;;;;11.05;1.65;;;12.10;99.90;;;;;;5050909;28;20556;-66
2022/10/11 11:10:24;;;;;;;8.27;1.63;;;12.20;99.90;;;;;;5050696;28;20498;-66
2022/10/11 11:13:03;;;;;;;8.45;1.77;;;12.30;99.90;;;;;;5050773;28;20041;-66
2022/10/11 11:15:40;;;;;;;9.52;2.35;;;12.30;99.90;;;;;;5050191;28;20041;-66
2022/10/11 11:18:27;;;;;;;9.02;1.83;;;12.30;99.90;;;;;;5049613;28;20126;-66
2022/10/11 11:20:58;;;;;;;6.30;1.60;;;12.30;99.90;;;;;;5049443;28;20045;-67
2022/10/11 11:23:37;;;;;;;6.53;1.48;;;12.30;99.90;;;;;;5050656;28;20055;-67
2022/10/11 11:26:16;;;;;;;4.60;1.30;;;12.30;99.90;;;;;;5051585;28;20045;-66
2022/10/11 11:29:23;;;;;;;8.45;1.48;;;12.40;99.90;;;;;;5054894;28;20040;-67
2022/10/11 11:31:58;;;;;;;5.80;1.63;;;12.50;99.90;;;;;;5030620;28;20144;-66
2022/10/11 11:34:36;;;;;;;9.52;2.38;;;12.60;99.90;;;;;;5054349;28;20049;-66
2022/10/11 11:37:22;;;;;;;8.52;1.90;;;12.60;99.90;;;;;;5053221;28;20045;-67
2022/10/11 11:39:51;;;;;;;6.97;1.75;;;12.60;99.90;;;;;;5054497;28;20033;-66
2022/10/11 11:42:29;;;;;;;11.43;1.60;;;12.80;99.90;;;;;;5053130;28;20098;-66
2022/10/11 11:44:55;;;;;;;8.75;1.50;;;12.80;99.90;;;;;;5054301;28;20037;-67
2022/10/11 11:47:30;;;;;;;7.70;1.80;;;12.90;99.90;;;;;;5053411;28;20041;-66
2022/10/11 11:50:04;;;;;;;5.57;1.75;;;12.90;99.90;;;;;;5054509;28;20086;-67
2022/10/11 11:52:36;;;;;;;11.95;2.00;;;13.00;99.90;;;;;;5054425;28;20045;-67
2022/10/11 11:55:20;;;;;;;10.80;1.40;;;12.90;99.90;;;;;;5053720;28;20128;-67
2022/10/11 11:58:07;;;;;;;6.57;1.50;;;13.00;99.90;;;;;;5052782;28;20436;-67
2022/10/11 12:00:50;;;;;;;4.68;1.40;;;12.90;99.90;;;;;;5053279;28;20043;-67
2022/10/11 12:03:22;;;;;;;8.82;2.13;;;12.90;99.90;;;;;;5054272;28;20048;-67
2022/10/11 12:06:16;;;;;;;6.75;1.65;;;13.00;99.90;;;;;;5052840;28;20095;-67
2022/10/11 12:08:45;;;;;;;2.88;1.20;;;13.10;99.90;;;;;;5052891;28;20052;-67
2022/10/11 12:11:25;;;;;;;3.97;1.55;;;13.10;99.90;;;;;;5053781;28;20110;-67
2022/10/11 12:13:54;;;;;;;8.32;1.45;;;13.00;99.90;;;;;;5053644;28;20049;-67
2022/10/11 12:16:20;;;;;;;12.70;1.40;;;13.10;99.90;;;;;;5053977;28;20041;-67
2022/10/11 12:18:55;;;;;;;6.78;1.75;;;13.10;99.90;;;;;;5053851;28;20059;-67
2022/10/11 12:21:36;;;;;;;7.90;1.70;;;13.10;99.90;;;;;;5053804;28;20044;-67
2022/10/11 12:24:10;;;;;;;5.20;1.38;;;13.10;99.90;;;;;;5053592;28;20075;-67
2022/10/11 12:26:42;;;;;;;6.47;2.25;;;13.10;99.90;;;;;;5053935;28;20387;-67
2022/10/11 12:29:35;;;;;;;6.53;1.67;;;13.20;99.90;;;;;;5052510;28;20106;-67
2022/10/11 12:32:00;;;;;;;6.60;1.38;;;13.20;99.90;;;;;;5053643;28;20045;-67
2022/10/11 12:34:33;;;;;;;7.65;1.42;;;13.30;99.90;;;;;;5055766;28;20093;-67
2022/10/11 12:36:59;;;;;;;7.32;1.67;;;13.20;99.90;;;;;;5072996;28;20515;-67
2022/10/11 12:39:25;;;;;;;2.70;1.10;;;13.30;99.90;;;;;;5072773;28;20037;-67
2022/10/11 12:41:54;;;;;;;10.00;1.77;;;13.50;99.90;;;;;;5073439;28;20566;-67
2022/10/11 12:44:27;;;;;;;6.90;1.88;;;13.40;99.90;;;;;;5071741;28;20075;-67
2022/10/11 12:46:52;;;;;;;2.45;1.15;;;13.50;99.90;;;;;;5072264;28;20526;-67
2022/10/11 12:49:30;;;;;;;6.75;1.50;;;13.50;99.90;;;;;;5072670;28;20071;-67
2022/10/11 12:52:14;;;;;;;6.85;1.60;;;13.60;99.90;;;;;;5073284;28;20044;-67
2022/10/11 12:54:58;;;;;;;10.27;1.70;;;13.60;99.90;;;;;;5071434;28;20036;-67
2022/10/11 12:57:54;;;;;;;9.27;1.67;;;13.60;99.90;;;;;;5072993;28;20098;-67
2022/10/11 13:00:48;;;;;;;12.57;1.70;;;13.60;99.90;;;;;;5073201;28;20032;-67
2022/10/11 13:03:32;;;;;;;5.93;1.35;;;13.60;99.90;;;;;;5062477;28;20152;-67
2022/10/11 13:05:58;;;;;;;6.45;1.40;;;13.60;99.90;;;;;;5072525;28;20488;-67
2022/10/11 13:08:29;;;;;;;8.60;1.65;;;13.60;99.90;;;;;;5072834;28;20051;-67
2022/10/11 13:11:00;;;;;;;5.15;1.52;;;13.60;99.90;;;;;;5072877;28;20040;-67
2022/10/11 13:13:27;;;;;;;7.65;1.63;;;13.70;99.90;;;;;;5071249;28;20048;-66
2022/10/11 13:15:56;;;;;;;4.32;1.10;;;13.80;99.90;;;;;;5071193;28;20079;-66